Time;durP1;ratioP1;P1;durP2;ratioP2;P2;SDS_P1;SDS_P2;PMS_P1;PMS_P2;Temp;Humidity;BMP_temperature;BMP_pressure;BME280_temperature;BME280_humidity;BME280_pressure;Samples;Min_cycle;Max_cycle;Signal;HPM_P1;HPM_P2
2022/08/26 00:00:43;;;;;;;11.67;8.60;;;;;;;24.24;67.16;100362.22;5033510;28;20198;-82
2022/08/26 00:03:11;;;;;;;9.50;8.57;;;;;;;24.22;66.98;100365.03;5035378;28;20210;-83
2022/08/26 00:05:38;;;;;;;9.47;8.63;;;;;;;24.23;66.76;100366.69;5034827;28;20266;-82
2022/08/26 00:08:04;;;;;;;10.23;9.17;;;;;;;24.16;67.34;100355.66;5035184;28;20236;-82
2022/08/26 00:10:30;;;;;;;10.57;9.47;;;;;;;24.12;67.77;100348.88;5035396;28;20202;-81
2022/08/26 00:12:57;;;;;;;13.27;9.50;;;;;;;24.05;67.81;100342.31;5034937;28;20260;-82
2022/08/26 00:15:24;;;;;;;11.23;9.80;;;;;;;23.97;68.60;100321.56;5035087;28;20218;-82
2022/08/26 00:17:53;;;;;;;10.73;8.93;;;;;;;23.93;68.60;100312.09;5000533;28;1003032;-81
2022/08/26 00:20:23;;;;;;;10.47;9.20;;;;;;;23.93;68.87;100316.59;5036704;28;20206;-81
2022/08/26 00:22:49;;;;;;;9.57;8.77;;;;;;;23.87;68.88;100304.56;5036314;28;20753;-82
2022/08/26 00:25:16;;;;;;;9.57;8.67;;;;;;;23.83;69.17;100300.44;5035226;28;20209;-83
2022/08/26 00:27:44;;;;;;;10.20;9.13;;;;;;;23.77;69.63;100288.44;5031716;28;20233;-83
2022/08/26 00:30:13;;;;;;;10.73;9.70;;;;;;;23.70;70.10;100281.84;5031655;28;20233;-83
2022/08/26 00:32:40;;;;;;;9.57;8.77;;;;;;;23.68;70.33;100272.28;5036197;28;20217;-82
2022/08/26 00:35:09;;;;;;;11.93;9.57;;;;;;;23.64;70.54;100258.31;5035944;28;20240;-83
2022/08/26 00:37:35;;;;;;;9.63;8.73;;;;;;;23.59;70.60;100260.50;5036136;28;20284;-81
2022/08/26 00:40:02;;;;;;;10.60;9.60;;;;;;;23.57;70.73;100259.78;5036538;28;20202;-84
2022/08/26 00:42:28;;;;;;;12.43;9.87;;;;;;;23.54;70.98;100257.34;5035788;28;20205;-81
2022/08/26 00:44:55;;;;;;;10.30;9.40;;;;;;;23.49;71.02;100246.16;5035554;28;20204;-81
2022/08/26 00:47:27;;;;;;;10.47;9.47;;;;;;;23.42;71.05;100258.28;5036313;28;20233;-83
2022/08/26 00:49:55;;;;;;;10.33;9.20;;;;;;;23.37;71.37;100247.97;5036244;28;20312;-83
2022/08/26 00:52:23;;;;;;;10.73;9.70;;;;;;;23.35;71.74;100239.25;5035693;28;20210;-83
2022/08/26 00:54:58;;;;;;;10.80;9.20;;;;;;;23.35;71.77;100231.25;5036016;28;20202;-83
2022/08/26 00:57:24;;;;;;;11.37;10.23;;;;;;;23.31;71.62;100243.09;5036011;28;20203;-83
2022/08/26 00:59:55;;;;;;;11.23;10.13;;;;;;;23.32;71.53;100234.97;5032168;28;20230;-83
2022/08/26 01:02:22;;;;;;;9.50;8.63;;;;;;;23.34;71.77;100238.38;5039753;28;20209;-84
2022/08/26 01:04:51;;;;;;;10.43;8.97;;;;;;;23.34;71.81;100237.53;5040097;28;20213;-82
2022/08/26 01:07:18;;;;;;;10.07;9.03;;;;;;;23.40;71.77;100250.38;5040447;28;20236;-82
2022/08/26 01:09:46;;;;;;;11.03;8.50;;;;;;;23.39;71.53;100254.03;5039864;28;20238;-83
2022/08/26 01:12:13;;;;;;;12.63;9.00;;;;;;;23.43;70.98;100271.47;5039483;28;20246;-81
2022/08/26 01:14:40;;;;;;;9.80;8.97;;;;;;;23.40;71.35;100274.38;5039607;28;20746;-82
2022/08/26 01:17:08;;;;;;;12.97;8.50;;;;;;;23.38;71.64;100265.63;5039804;28;20206;-83
2022/08/26 01:19:42;;;;;;;10.30;9.37;;;;;;;23.37;71.81;100261.28;5039653;28;20242;-83
2022/08/26 01:22:12;;;;;;;10.57;9.00;;;;;;;23.31;71.79;100256.41;5039770;28;20198;-83
2022/08/26 01:24:41;;;;;;;13.53;9.90;;;;;;;23.32;71.67;100252.78;5039308;28;20587;-83
2022/08/26 01:27:10;;;;;;;10.40;9.40;;;;;;;23.30;71.92;100254.72;5038281;28;20207;-81
2022/08/26 01:29:39;;;;;;;10.60;9.60;;;;;;;23.30;71.92;100260.03;5031087;28;20588;-82
2022/08/26 01:32:08;;;;;;;10.47;9.57;;;;;;;23.29;71.84;100258.34;5038991;28;20203;-83
2022/08/26 01:34:37;;;;;;;10.57;9.43;;;;;;;23.31;71.75;100259.94;5039855;28;20200;-83
2022/08/26 01:37:07;;;;;;;9.37;8.53;;;;;;;23.32;71.34;100274.94;5039522;28;20210;-83
2022/08/26 01:39:35;;;;;;;10.00;8.70;;;;;;;23.26;71.44;100270.06;5039776;28;20236;-83
2022/08/26 01:42:04;;;;;;;10.30;9.27;;;;;;;23.26;71.60;100259.41;5039568;28;20635;-81
2022/08/26 01:44:36;;;;;;;10.70;9.00;;;;;;;23.23;71.77;100267.66;5038877;28;20274;-83
2022/08/26 01:47:03;;;;;;;9.93;9.07;;;;;;;23.23;72.13;100253.47;5039677;28;20293;-81
2022/08/26 01:49:29;;;;;;;11.53;10.33;;;;;;;23.22;72.27;100249.13;5039363;28;20290;-83
2022/08/26 01:51:58;;;;;;;11.20;9.33;;;;;;;23.19;72.61;100239.53;5039767;28;20208;-82
2022/08/26 01:54:25;;;;;;;10.73;9.57;;;;;;;23.17;72.90;100233.47;5039894;28;20210;-84
2022/08/26 01:56:53;;;;;;;10.73;9.50;;;;;;;23.16;72.94;100231.78;5037800;28;20235;-82
2022/08/26 01:59:23;;;;;;;10.30;9.43;;;;;;;23.20;72.57;100246.56;5031058;28;20301;-82
2022/08/26 02:01:50;;;;;;;10.17;8.97;;;;;;;23.21;72.78;100245.63;5039645;28;20241;-83
2022/08/26 02:04:21;;;;;;;12.30;9.03;;;;;;;23.19;72.38;100258.16;5039757;28;20208;-84
2022/08/26 02:06:49;;;;;;;11.37;8.53;;;;;;;23.14;72.74;100261.19;5039487;28;20206;-83
2022/08/26 02:09:17;;;;;;;10.53;9.57;;;;;;;23.15;72.64;100264.69;5038994;28;20280;-83
2022/08/26 02:11:44;;;;;;;9.77;8.63;;;;;;;23.14;72.52;100271.00;5039918;28;20206;-82
2022/08/26 02:14:14;;;;;;;10.90;8.83;;;;;;;23.13;72.61;100258.63;5039364;28;20212;-83
2022/08/26 02:16:45;;;;;;;8.93;8.27;;;;;;;23.09;73.28;100249.16;5039382;28;20627;-83
2022/08/26 02:19:15;;;;;;;10.77;9.83;;;;;;;23.07;73.44;100236.00;5039489;28;20597;-82
2022/08/26 02:21:42;;;;;;;9.70;8.60;;;;;;;23.12;72.75;100247.13;5039264;28;20213;-85
2022/08/26 02:24:10;;;;;;;10.20;9.30;;;;;;;23.07;72.98;100246.66;5037516;28;20269;-83
2022/08/26 02:26:37;;;;;;;10.30;9.40;;;;;;;23.03;73.36;100241.66;5035903;28;20269;-82
2022/08/26 02:29:08;;;;;;;12.07;8.83;;;;;;;22.98;73.27;100245.47;5028877;28;20835;-83
2022/08/26 02:31:34;;;;;;;10.17;9.10;;;;;;;22.90;73.79;100226.56;5037685;28;20639;-82
2022/08/26 02:34:09;;;;;;;9.60;8.70;;;;;;;22.88;73.54;100239.13;5037345;28;20202;-82
2022/08/26 02:36:36;;;;;;;9.80;9.00;;;;;;;22.85;73.27;100236.69;5037101;28;20252;-83
2022/08/26 02:39:02;;;;;;;9.93;8.97;;;;;;;22.85;73.34;100242.00;5037542;28;20283;-82
2022/08/26 02:41:29;;;;;;;10.13;9.07;;;;;;;22.85;72.87;100257.13;5037392;28;20705;-82
2022/08/26 02:43:55;;;;;;;10.60;8.50;;;;;;;22.85;72.95;100260.63;5037450;28;20230;-82
2022/08/26 02:46:22;;;;;;;14.97;9.43;;;;;;;22.80;73.45;100247.69;5036670;28;20231;-82
2022/08/26 02:48:49;;;;;;;9.47;8.67;;;;;;;22.80;73.49;100250.34;5036537;28;20635;-82
2022/08/26 02:51:17;;;;;;;12.67;8.97;;;;;;;22.83;73.34;100241.28;5036506;28;20203;-81
2022/08/26 02:53:44;;;;;;;10.13;8.77;;;;;;;22.84;73.60;100240.31;5036581;28;20199;-83
2022/08/26 02:56:10;;;;;;;10.67;9.77;;;;;;;22.85;73.76;100223.38;5035834;28;20206;-83
2022/08/26 02:58:37;;;;;;;9.87;8.97;;;;;;;22.83;73.45;100235.94;5033456;28;20256;-82
2022/08/26 03:01:03;;;;;;;12.30;9.40;;;;;;;22.81;73.52;100240.53;5036352;28;20259;-81
2022/08/26 03:03:30;;;;;;;10.60;9.73;;;;;;;22.77;73.72;100226.63;5036204;28;20234;-80
2022/08/26 03:05:57;;;;;;;10.93;9.67;;;;;;;22.68;74.12;100215.81;5035594;28;20210;-80
2022/08/26 03:08:25;;;;;;;10.03;9.20;;;;;;;22.64;74.76;100196.56;5036611;28;20255;-81
2022/08/26 03:10:51;;;;;;;10.03;9.13;;;;;;;22.63;74.43;100197.50;5036752;28;20233;-83
2022/08/26 03:13:18;;;;;;;9.73;8.73;;;;;;;22.56;75.11;100177.66;5036702;28;20300;-81
2022/08/26 03:15:44;;;;;;;11.30;10.17;;;;;;;22.50;75.58;100172.78;5036136;28;20541;-82
2022/08/26 03:18:11;;;;;;;10.80;9.73;;;;;;;22.55;74.84;100182.09;5036092;28;20240;-82
2022/08/26 03:20:37;;;;;;;12.40;9.53;;;;;;;22.57;74.59;100185.50;5035375;28;20269;-81
2022/08/26 03:23:03;;;;;;;10.27;9.07;;;;;;;22.57;74.50;100195.28;5036270;28;20210;-81
2022/08/26 03:25:31;;;;;;;11.43;9.27;;;;;;;22.47;75.28;100186.28;5035987;28;20251;-82
2022/08/26 03:27:58;;;;;;;9.33;8.40;;;;;;;22.43;75.67;100175.00;5029047;28;20226;-81
2022/08/26 03:30:38;;;;;;;13.03;10.13;;;;;;;22.38;76.03;100158.56;5033212;28;20257;-82
2022/08/26 03:33:05;;;;;;;11.77;9.17;;;;;;;22.33;76.50;100150.91;5036069;28;20284;-82
2022/08/26 03:35:33;;;;;;;10.80;9.63;;;;;;;22.25;76.81;100128.50;5035625;28;20206;-82
2022/08/26 03:38:00;;;;;;;10.70;9.70;;;;;;;22.27;76.51;100132.72;5036371;28;20222;-81
2022/08/26 03:40:26;;;;;;;10.17;9.20;;;;;;;22.33;76.40;100134.94;5036014;28;20202;-83
2022/08/26 03:42:54;;;;;;;15.13;8.83;;;;;;;22.36;76.00;100152.50;5035882;28;20214;-82
2022/08/26 03:45:21;;;;;;;9.73;9.03;;;;;;;22.39;75.92;100160.25;5035584;28;20202;-83
2022/08/26 03:47:48;;;;;;;10.73;9.40;;;;;;;22.35;76.18;100156.09;5036341;28;20206;-83
2022/08/26 03:50:17;;;;;;;10.23;9.17;;;;;;;22.36;76.35;100160.47;5036242;28;20202;-81
2022/08/26 03:52:45;;;;;;;13.17;9.23;;;;;;;22.37;76.70;100148.88;5036004;28;20221;-83
2022/08/26 03:55:13;;;;;;;10.80;9.70;;;;;;;22.37;76.49;100149.72;5035799;28;20301;-82
2022/08/26 03:57:39;;;;;;;12.63;9.73;;;;;;;22.36;76.75;100150.69;5031784;28;20552;-82
2022/08/26 04:00:12;;;;;;;11.37;9.20;;;;;;;22.39;76.64;100158.41;5030167;28;20203;-82
2022/08/26 04:02:38;;;;;;;10.13;9.33;;;;;;;22.38;76.74;100162.06;5036057;28;20245;-81
2022/08/26 04:05:05;;;;;;;10.23;9.27;;;;;;;22.40;76.58;100160.13;5036347;28;20206;-83
2022/08/26 04:07:31;;;;;;;10.27;9.23;;;;;;;22.40;76.62;100165.47;5035499;28;20201;-83
2022/08/26 04:09:58;;;;;;;11.40;9.50;;;;;;;22.47;76.37;100165.84;5035580;28;20238;-82
2022/08/26 04:12:25;;;;;;;14.43;9.97;;;;;;;22.51;75.70;100183.28;5035734;28;20241;-83
2022/08/26 04:14:52;;;;;;;14.03;9.93;;;;;;;22.55;75.23;100198.06;5035387;28;20312;-83
2022/08/26 04:17:20;;;;;;;11.63;10.47;;;;;;;22.57;75.10;100209.44;5036144;28;20206;-82
2022/08/26 04:19:46;;;;;;;11.50;10.17;;;;;;;22.48;76.25;100183.53;5035993;28;20272;-83
2022/08/26 04:22:13;;;;;;;14.07;10.43;;;;;;;22.44;76.60;100166.09;5035996;28;20236;-82
2022/08/26 04:24:39;;;;;;;12.87;9.67;;;;;;;22.40;76.88;100164.63;5035944;28;20254;-81
2022/08/26 04:27:06;;;;;;;11.23;9.60;;;;;;;22.41;76.38;100163.63;5034511;28;20268;-82
2022/08/26 04:29:32;;;;;;;11.33;10.13;;;;;;;22.42;76.54;100178.66;5027799;28;20685;-83
2022/08/26 04:31:59;;;;;;;12.13;10.47;;;;;;;22.38;77.08;100167.38;5036034;28;20206;-83
2022/08/26 04:34:27;;;;;;;11.03;9.73;;;;;;;22.43;76.55;100175.00;5036196;28;20315;-83
2022/08/26 04:36:54;;;;;;;16.83;10.50;;;;;;;22.44;76.26;100190.03;5035769;28;20210;-81
2022/08/26 04:39:21;;;;;;;16.70;11.03;;;;;;;22.38;76.76;100178.00;5038762;28;20222;-83
2022/08/26 04:41:48;;;;;;;12.47;10.30;;;;;;;22.45;76.27;100188.22;5035886;28;20201;-83
2022/08/26 04:44:15;;;;;;;12.33;11.23;;;;;;;22.40;76.38;100192.06;5035891;28;20372;-83
2022/08/26 04:46:42;;;;;;;11.73;10.67;;;;;;;22.37;76.67;100170.97;5037219;28;20252;-83
2022/08/26 04:49:08;;;;;;;13.70;11.60;;;;;;;22.32;76.75;100180.25;5036907;28;20701;-84
2022/08/26 04:51:37;;;;;;;13.07;11.53;;;;;;;22.23;76.61;100184.41;5037142;28;20210;-83
2022/08/26 04:54:05;;;;;;;14.07;11.17;;;;;;;22.15;77.70;100166.34;5037812;28;20630;-83
2022/08/26 04:56:35;;;;;;;11.37;10.27;;;;;;;22.19;76.98;100181.09;5035525;28;20218;-83
2022/08/26 04:59:06;;;;;;;10.67;9.53;;;;;;;22.25;76.51;100189.66;5028650;28;20237;-83
2022/08/26 05:01:33;;;;;;;13.53;10.70;;;;;;;22.27;76.52;100196.56;5037228;28;20260;-83
2022/08/26 05:04:01;;;;;;;11.60;10.50;;;;;;;22.27;76.25;100203.69;5037482;28;20209;-83
2022/08/26 05:06:27;;;;;;;11.07;9.90;;;;;;;22.24;76.68;100199.44;5031136;28;20203;-82
2022/08/26 05:08:56;;;;;;;10.93;10.00;;;;;;;22.23;77.10;100188.88;5007429;28;20251;-83
2022/08/26 05:11:22;;;;;;;12.33;10.80;;;;;;;22.19;77.13;100188.25;5007541;28;20202;-82
2022/08/26 05:13:49;;;;;;;12.43;11.00;;;;;;;22.07;77.95;100157.22;5004792;28;20203;-83
2022/08/26 05:16:16;;;;;;;11.80;10.60;;;;;;;22.04;77.55;100171.59;5004803;28;20204;-83
2022/08/26 05:18:44;;;;;;;16.30;10.43;;;;;;;22.02;77.47;100182.34;5005699;28;20288;-83
2022/08/26 05:21:17;;;;;;;12.17;10.30;;;;;;;22.07;77.82;100171.34;5006735;28;20200;-81
2022/08/26 05:23:44;;;;;;;10.87;9.93;;;;;;;22.11;78.07;100169.34;5005376;28;20614;-82
2022/08/26 05:26:11;;;;;;;11.83;10.73;;;;;;;22.14;78.18;100161.13;5005798;28;20198;-84
2022/08/26 05:28:38;;;;;;;11.30;9.77;;;;;;;22.12;78.25;100157.72;5015145;28;20285;-82
2022/08/26 05:31:12;;;;;;;13.60;10.70;;;;;;;22.08;78.64;100148.28;5006376;28;20720;-83
2022/08/26 05:33:38;;;;;;;11.13;10.00;;;;;;;22.07;78.52;100159.88;5007208;28;20195;-81
2022/08/26 05:36:06;;;;;;;11.63;10.43;;;;;;;22.08;78.15;100178.38;5005842;28;20589;-82
2022/08/26 05:38:33;;;;;;;17.13;11.07;;;;;;;22.08;78.30;100178.38;5006126;28;20227;-81
2022/08/26 05:41:00;;;;;;;15.93;11.20;;;;;;;22.10;78.00;100186.22;5007086;28;20199;-81
2022/08/26 05:43:27;;;;;;;13.43;10.73;;;;;;;22.14;78.03;100187.72;5007606;28;20207;-83
2022/08/26 05:45:55;;;;;;;12.13;11.10;;;;;;;22.10;78.22;100176.47;5010013;28;20213;-83
2022/08/26 05:48:21;;;;;;;12.27;10.90;;;;;;;22.09;78.51;100158.81;5013012;28;20226;-85
2022/08/26 05:50:51;;;;;;;13.37;11.30;;;;;;;22.10;78.87;100147.22;5009893;28;20721;-81
2022/08/26 05:53:20;;;;;;;14.63;11.20;;;;;;;22.12;79.31;100141.78;5009186;28;20200;-84
2022/08/26 05:55:49;;;;;;;15.97;11.27;;;;;;;22.12;79.52;100132.00;5009680;28;20211;-82
2022/08/26 05:58:18;;;;;;;11.00;10.10;;;;;;;22.09;80.08;100134.88;5017896;28;20233;-83
2022/08/26 06:00:55;;;;;;;11.93;10.73;;;;;;;22.10;79.81;100151.66;5013065;28;20227;-83
2022/08/26 06:03:22;;;;;;;11.37;10.20;;;;;;;22.10;80.42;100143.69;5007573;28;20215;-83
2022/08/26 06:05:48;;;;;;;11.90;10.90;;;;;;;22.04;80.49;100129.06;5008345;28;20206;-84
2022/08/26 06:08:15;;;;;;;12.50;10.57;;;;;;;22.07;79.45;100162.53;5005916;28;20229;-84
2022/08/26 06:11:45;;;;;;;18.93;11.73;;;;;;;22.10;78.73;100184.44;5010107;28;20215;-79
2022/08/26 06:14:12;;;;;;;14.73;11.93;;;;;;;22.05;78.87;100189.22;4924475;28;20576;-82
2022/08/26 06:16:42;;;;;;;15.03;11.60;;;;;;;22.07;78.88;100179.34;5007897;28;20681;-82
2022/08/26 06:19:10;;;;;;;16.90;11.03;;;;;;;22.07;78.97;100189.97;5006928;28;20314;-80
2022/08/26 06:21:38;;;;;;;12.60;11.40;;;;;;;22.08;78.96;100181.03;5006321;28;20207;-82
2022/08/26 06:27:12;;;;;;;12.03;10.60;;;;;;;22.07;79.23;100182.00;5011986;28;20261;-83
2022/08/26 06:29:38;;;;;;;14.07;11.60;;;;;;;22.07;79.15;100179.34;5009483;28;20254;-83
2022/08/26 06:32:11;;;;;;;21.27;11.53;;;;;;;22.08;79.12;100177.50;5008203;28;20199;-82
2022/08/26 06:34:39;;;;;;;11.43;10.33;;;;;;;22.11;79.13;100174.66;5008444;28;20238;-83
2022/08/26 06:37:11;;;;;;;13.57;11.37;;;;;;;22.08;79.21;100178.38;5006507;28;20254;-82
2022/08/26 06:39:37;;;;;;;16.00;11.57;;;;;;;22.14;78.77;100190.38;5005226;28;20780;-82
2022/08/26 06:42:07;;;;;;;15.60;11.13;;;;;;;22.15;78.51;100203.56;5007763;28;20661;-79
2022/08/26 06:44:34;;;;;;;16.00;12.13;;;;;;;22.17;78.34;100209.63;5008033;28;20208;-82
2022/08/26 06:47:00;;;;;;;15.10;12.50;;;;;;;22.17;78.95;100203.47;5005944;28;20258;-80
2022/08/26 06:49:28;;;;;;;20.57;12.90;;;;;;;22.18;78.71;100200.69;5006727;28;20226;-79
2022/08/26 06:51:57;;;;;;;20.03;13.40;;;;;;;22.19;79.10;100191.75;5007480;28;20204;-79
2022/08/26 06:54:23;;;;;;;12.90;11.60;;;;;;;22.21;78.93;100194.31;5008068;28;20584;-82
2022/08/26 06:56:50;;;;;;;14.60;11.37;;;;;;;22.23;78.51;100204.84;5011734;28;20204;-79
2022/08/26 06:59:16;;;;;;;14.90;12.03;;;;;;;22.24;79.04;100202.09;5011676;28;20226;-81
2022/08/26 07:01:44;;;;;;;12.93;11.63;;;;;;;22.29;78.69;100212.41;5007595;28;20213;-82
2022/08/26 07:04:36;;;;;;;16.97;11.50;;;;;;;22.33;78.26;100228.00;5006498;28;20237;-81
2022/08/26 07:07:02;;;;;;;12.67;10.27;;;;;;;22.36;78.40;100224.31;5005006;28;20200;-81
2022/08/26 07:09:31;;;;;;;18.80;10.43;;;;;;;22.40;78.10;100223.97;5005509;28;20219;-80
2022/08/26 07:11:58;;;;;;;15.40;10.13;;;;;;;22.47;78.26;100227.03;5006560;28;20659;-81
2022/08/26 07:14:25;;;;;;;11.23;9.20;;;;;;;22.51;77.96;100231.16;5005719;28;20231;-81
2022/08/26 07:16:52;;;;;;;17.70;10.07;;;;;;;22.60;77.67;100241.16;5006212;28;20207;-82
2022/08/26 07:19:19;;;;;;;15.30;10.37;;;;;;;22.63;77.87;100236.56;5005874;28;20266;-81
2022/08/26 07:21:47;;;;;;;16.83;11.47;;;;;;;22.68;77.59;100247.75;5005767;28;20223;-84
2022/08/26 07:24:47;;;;;;;20.03;11.50;;;;;;;22.70;77.79;100241.34;5005920;28;20584;-80
2022/08/26 07:27:35;;;;;;;14.27;11.17;;;;;;;22.74;77.81;100244.63;5009971;28;20206;-81
2022/08/26 07:30:48;;;;;;;10.87;9.70;;;;;;;22.74;77.67;100242.81;5004116;28;20601;-80
2022/08/26 07:33:40;;;;;;;15.17;10.93;;;;;;;22.79;77.92;100243.34;4954276;28;20264;-79
2022/08/26 07:36:45;;;;;;;12.93;9.83;;;;;;;22.85;77.57;100257.13;4999474;28;20214;-80
2022/08/26 07:39:17;;;;;;;12.47;11.00;;;;;;;22.91;77.08;100270.88;5006023;28;20228;-81
2022/08/26 07:41:49;;;;;;;12.30;10.80;;;;;;;22.99;77.12;100272.94;5004854;28;20233;-83
2022/08/26 07:44:16;;;;;;;13.40;9.77;;;;;;;23.05;77.21;100277.84;5004557;28;20203;-83
2022/08/26 07:46:43;;;;;;;12.03;10.47;;;;;;;23.12;77.40;100279.09;5004825;28;20211;-82
2022/08/26 07:49:10;;;;;;;11.13;10.03;;;;;;;23.19;77.02;100290.13;5006147;28;20222;-82
2022/08/26 07:51:38;;;;;;;13.07;11.20;;;;;;;23.24;76.91;100295.97;5007305;28;20210;-80
2022/08/26 07:54:06;;;;;;;14.93;10.47;;;;;;;23.34;77.22;100288.16;5004838;28;20203;-79
2022/08/26 07:56:34;;;;;;;13.40;10.10;;;;;;;23.43;77.50;100286.59;5008588;28;20211;-80
2022/08/26 07:59:01;;;;;;;12.90;10.27;;;;;;;23.49;77.14;100295.00;5014159;28;20226;-82
2022/08/26 08:01:30;;;;;;;11.80;10.57;;;;;;;23.48;77.57;100279.97;5007724;28;20208;-80
2022/08/26 08:03:59;;;;;;;12.97;9.70;;;;;;;23.52;77.86;100272.59;5005650;28;20203;-82
2022/08/26 08:06:26;;;;;;;11.27;10.03;;;;;;;23.51;77.79;100282.41;5006902;28;20203;-80
2022/08/26 08:08:53;;;;;;;13.37;10.33;;;;;;;23.51;77.51;100292.22;5005388;28;20219;-81
2022/08/26 08:11:20;;;;;;;11.53;10.33;;;;;;;23.46;76.51;100313.88;5006045;28;20219;-80
2022/08/26 08:13:50;;;;;;;10.77;9.77;;;;;;;23.52;76.13;100341.88;5005662;28;20199;-81
2022/08/26 08:16:17;;;;;;;16.60;9.80;;;;;;;23.53;76.13;100335.59;5003932;28;20247;-81
2022/08/26 08:18:44;;;;;;;12.60;9.83;;;;;;;23.58;75.99;100338.75;5004900;28;20583;-83
2022/08/26 08:21:11;;;;;;;11.17;10.07;;;;;;;23.52;76.78;100316.06;5013420;28;20228;-81
2022/08/26 08:23:38;;;;;;;13.00;9.30;;;;;;;23.54;76.75;100315.97;5013397;28;20206;-81
2022/08/26 08:26:07;;;;;;;11.57;9.70;;;;;;;23.53;77.13;100303.63;5004826;28;20211;-81
2022/08/26 08:28:33;;;;;;;13.60;9.37;;;;;;;23.55;76.12;100329.16;5008176;28;20235;-84
2022/08/26 08:34:37;;;;;;;10.70;8.63;;;;;;;23.72;75.33;100351.03;4958999;28;20580;-81
2022/08/26 08:37:05;;;;;;;14.77;9.27;;;;;;;23.82;75.61;100349.38;4971924;28;20200;-81
2022/08/26 08:39:32;;;;;;;12.77;9.47;;;;;;;23.93;75.06;100349.44;5001804;28;20225;-80
2022/08/26 08:42:37;;;;;;;11.17;9.47;;;;;;;23.94;75.13;100356.47;5014354;28;20210;-82
2022/08/26 08:45:09;;;;;;;14.87;9.60;;;;;;;23.87;75.55;100335.72;4953113;29;20291;-83
2022/08/26 08:47:38;;;;;;;12.07;9.17;;;;;;;24.02;75.63;100344.34;4955050;29;20230;-79
2022/08/26 08:50:17;;;;;;;12.87;10.13;;;;;;;24.13;75.46;100323.88;4986196;28;20232;-79
2022/08/26 08:52:49;;;;;;;13.73;9.50;;;;;;;24.25;74.74;100346.09;5015347;28;20213;-82
2022/08/26 08:55:16;;;;;;;13.37;9.17;;;;;;;24.32;74.07;100363.34;5014165;28;20623;-81
2022/08/26 08:58:45;;;;;;;15.40;10.13;;;;;;;24.36;74.24;100370.13;5013278;28;20241;-80
2022/08/26 09:01:41;;;;;;;11.73;9.50;;;;;;;24.50;74.50;100362.84;5004346;28;20289;-80
2022/08/26 09:04:29;;;;;;;12.33;9.47;;;;;;;24.61;73.95;100362.88;4994341;28;20210;-82
2022/08/26 09:07:00;;;;;;;12.03;9.57;;;;;;;24.71;73.67;100376.34;5006317;28;20199;-82
2022/08/26 09:19:37;;;;;;;16.63;10.93;;;;;;;24.86;72.38;100414.34;5008303;28;20228;-83
2022/08/26 09:22:53;;;;;;;14.47;11.67;;;;;;;24.54;74.14;100359.00;5008009;28;20239;-82
2022/08/26 09:28:41;;;;;;;13.00;9.93;;;;;;;24.88;72.94;100365.19;4936563;28;20255;-81
2022/08/26 09:31:13;;;;;;;11.47;10.13;;;;;;;25.02;72.78;100381.94;5007640;28;20225;-81
2022/08/26 09:33:41;;;;;;;13.87;9.90;;;;;;;25.11;71.97;100407.88;5006632;28;20203;-83
2022/08/26 09:36:35;;;;;;;15.83;10.80;;;;;;;25.22;71.64;100417.75;5008080;28;20201;-81
2022/08/26 09:39:02;;;;;;;14.57;10.70;;;;;;;25.36;71.14;100437.00;5007711;28;20223;-81
2022/08/26 09:41:31;;;;;;;12.37;10.80;;;;;;;25.44;70.26;100454.25;5007855;28;20221;-80
2022/08/26 09:44:11;;;;;;;16.23;10.40;;;;;;;25.45;71.04;100439.91;5009172;28;20209;-83
2022/08/26 09:46:40;;;;;;;16.50;10.43;;;;;;;25.53;70.04;100437.44;5009176;28;20191;-84
2022/08/26 09:49:27;;;;;;;11.73;10.17;;;;;;;25.66;69.51;100472.91;5008141;28;20227;-84
2022/08/26 09:52:15;;;;;;;16.33;10.07;;;;;;;25.80;68.73;100500.34;5008844;28;20236;-82
2022/08/26 09:54:44;;;;;;;10.27;9.27;;;;;;;25.85;69.27;100464.22;5008260;28;20596;-83
2022/08/26 09:57:24;;;;;;;11.13;9.23;;;;;;;25.94;67.46;100508.94;5012018;28;20683;-82
2022/08/26 09:59:53;;;;;;;12.73;9.50;;;;;;;26.00;67.80;100520.13;5010905;28;20226;-83
2022/08/26 10:02:39;;;;;;;10.83;9.43;;;;;;;26.09;66.58;100556.84;5008104;28;20203;-85
2022/08/26 10:05:16;;;;;;;11.70;9.27;;;;;;;26.16;67.60;100507.16;5008814;28;20262;-85
2022/08/26 10:07:53;;;;;;;15.97;9.40;;;;;;;26.28;66.08;100553.47;5008424;28;20199;-81
2022/08/26 10:10:30;;;;;;;17.47;10.00;;;;;;;26.40;66.30;100548.91;5007007;28;20223;-85
2022/08/26 10:13:05;;;;;;;10.73;9.00;;;;;;;26.49;65.24;100566.88;5007390;28;20232;-85
2022/08/26 10:15:45;;;;;;;12.40;9.13;;;;;;;26.56;64.97;100565.41;5006682;28;20198;-81
2022/08/26 10:22:03;;;;;;;11.80;8.80;;;;;;;26.75;64.24;100578.09;4935773;28;20201;-81
2022/08/26 10:24:35;;;;;;;10.60;9.60;;;;;;;26.70;63.23;100618.66;4964848;28;20200;-83
2022/08/26 10:27:10;;;;;;;11.03;8.67;;;;;;;26.79;62.54;100646.50;5001682;28;20206;-83
2022/08/26 10:29:39;;;;;;;8.90;8.00;;;;;;;26.87;62.74;100654.72;5012837;28;20264;-81
2022/08/26 10:32:12;;;;;;;12.13;9.00;;;;;;;26.93;63.60;100589.91;5005473;28;20234;-81
2022/08/26 10:34:39;;;;;;;9.20;8.30;;;;;;;27.01;63.58;100570.50;5005907;28;20235;-80
2022/08/26 10:37:18;;;;;;;12.20;7.90;;;;;;;27.13;60.77;100630.22;5010635;28;20202;-82
2022/08/26 10:39:52;;;;;;;11.40;8.50;;;;;;;27.16;60.56;100678.22;5016847;28;20230;-81
2022/08/26 10:42:25;;;;;;;9.40;8.50;;;;;;;27.11;61.87;100640.25;5015273;28;20970;-83
2022/08/26 10:44:56;;;;;;;10.77;8.13;;;;;;;27.18;61.93;100597.69;5016302;28;20191;-82
2022/08/26 10:47:28;;;;;;;11.50;8.07;;;;;;;27.28;61.23;100630.78;5016612;28;20206;-82
2022/08/26 10:49:55;;;;;;;14.33;8.57;;;;;;;27.30;63.71;100561.81;5016928;28;20226;-83
2022/08/26 10:52:39;;;;;;;11.87;8.40;;;;;;;27.44;61.84;100588.25;5017505;28;20206;-82
2022/08/26 10:55:11;;;;;;;12.03;7.90;;;;;;;27.60;60.79;100627.13;5016793;28;20206;-83
2022/08/26 10:57:46;;;;;;;15.03;8.40;;;;;;;27.67;61.37;100612.19;5025552;28;20210;-82
2022/08/26 11:03:21;;;;;;;9.20;7.77;;;;;;;27.97;60.43;100646.22;5037143;28;20260;-83
2022/08/26 11:06:15;;;;;;;13.60;8.93;;;;;;;28.17;60.22;100639.06;5037188;28;20676;-83
2022/08/26 11:08:47;;;;;;;8.07;7.23;;;;;;;28.31;58.47;100718.38;5037931;28;20230;-82
2022/08/26 11:11:48;;;;;;;9.67;7.17;;;;;;;28.38;55.55;100812.63;5037367;28;20249;-81
2022/08/26 11:14:32;;;;;;;7.70;7.03;;;;;;;28.49;55.53;100836.72;5036914;28;20578;-83
2022/08/26 11:17:00;;;;;;;7.43;6.57;;;;;;;28.56;53.57;100854.00;5037191;28;20680;-83
2022/08/26 11:20:10;;;;;;;10.83;6.77;;;;;;;28.71;53.26;100882.19;5036936;28;20218;-82
2022/08/26 11:22:40;;;;;;;6.57;6.07;;;;;;;28.84;52.59;100911.53;5037961;28;20201;-82
2022/08/26 11:25:16;;;;;;;6.77;6.07;;;;;;;29.00;51.02;100950.47;5029620;28;20745;-83
2022/08/26 11:28:00;;;;;;;8.23;6.50;;;;;;;29.17;50.20;100971.38;5020792;28;20232;-82
2022/08/26 11:30:49;;;;;;;8.70;6.30;;;;;;;29.38;49.58;100946.25;5026690;28;20218;-82
2022/08/26 11:33:45;;;;;;;8.53;6.67;;;;;;;29.63;48.68;101004.91;5022540;28;20199;-82
2022/08/26 11:36:34;;;;;;;10.47;7.33;;;;;;;30.38;46.24;101063.66;5006348;28;20195;-88
2022/08/26 11:39:03;;;;;;;13.40;7.93;;;;;;;31.34;44.96;101120.22;5006477;28;20219;-82
2022/08/26 11:41:31;;;;;;;10.53;7.13;;;;;;;32.31;43.54;101122.41;5006630;28;20199;-81
2022/08/26 11:44:03;;;;;;;13.73;7.87;;;;;;;33.44;41.25;101242.56;5006793;28;20267;-84
2022/08/26 11:46:30;;;;;;;17.87;7.43;;;;;;;34.75;38.83;101295.69;5005263;28;20261;-83
2022/08/26 11:49:01;;;;;;;9.33;7.20;;;;;;;35.82;36.19;101394.38;5007518;28;20215;-82
2022/08/26 11:51:28;;;;;;;9.67;7.13;;;;;;;36.80;34.61;101455.81;5007885;28;20249;-84
2022/08/26 11:54:10;;;;;;;9.37;6.60;;;;;;;37.53;32.89;101468.19;5006497;28;20200;-81
2022/08/26 11:56:44;;;;;;;11.60;7.20;;;;;;;37.94;31.61;101476.06;5009270;28;20203;-82
2022/08/26 11:59:17;;;;;;;10.93;6.10;;;;;;;38.26;31.64;101474.06;5012090;28;20222;-84